Time;durP1;ratioP1;P1;durP2;ratioP2;P2;SDS_P1;SDS_P2;PMS_P1;PMS_P2;Temp;Humidity;BMP_temperature;BMP_pressure;BME280_temperature;BME280_humidity;BME280_pressure;Samples;Min_cycle;Max_cycle;Signal;HPM_P1;HPM_P2
2021/03/07 00:00:15;;;;;;;8.77;6.93;;;;;;;-2.33;100.00;101354.47;5062931;28;20048;-76
2021/03/07 00:03:18;;;;;;;11.70;5.30;;;;;;;-2.28;100.00;101348.75;5075005;28;20048;-76
2021/03/07 00:06:22;;;;;;;13.82;5.88;;;;;;;-2.26;100.00;101341.00;5062779;28;20044;-76
2021/03/07 00:09:25;;;;;;;17.92;6.00;;;;;;;-2.23;100.00;101340.28;5062938;28;20048;-76
2021/03/07 00:12:29;;;;;;;20.35;6.20;;;;;;;-2.20;100.00;101338.78;5074912;28;20044;-76
2021/03/07 00:15:32;;;;;;;14.45;6.88;;;;;;;-2.17;100.00;101346.28;5074690;28;20044;-76
2021/03/07 00:18:35;;;;;;;15.65;7.28;;;;;;;-2.17;100.00;101333.44;5074438;28;20052;-76
2021/03/07 00:21:39;;;;;;;23.00;6.80;;;;;;;-2.15;100.00;101331.13;5074904;28;20110;-76
2021/03/07 00:24:43;;;;;;;27.38;8.55;;;;;;;-2.14;100.00;101332.72;5074891;28;20396;-75
2021/03/07 00:27:46;;;;;;;17.17;5.95;;;;;;;-2.14;100.00;101327.25;5062256;28;20052;-76
2021/03/07 00:30:50;;;;;;;4.95;4.55;;;;;;;-2.09;100.00;101329.72;5062202;28;20469;-75
2021/03/07 00:33:53;;;;;;;12.43;5.93;;;;;;;-2.12;100.00;101319.50;5074571;28;20047;-75
2021/03/07 00:36:57;;;;;;;8.10;4.40;;;;;;;-2.12;100.00;101324.19;5061927;28;20406;-76
2021/03/07 00:40:01;;;;;;;13.30;6.18;;;;;;;-2.13;100.00;101336.22;5074660;28;20044;-76
2021/03/07 00:43:04;;;;;;;8.88;4.88;;;;;;;-2.09;100.00;101326.97;5062119;28;20469;-76
2021/03/07 00:46:08;;;;;;;9.43;5.95;;;;;;;-2.08;100.00;101320.38;5074160;28;20047;-76
2021/03/07 00:49:12;;;;;;;9.98;6.15;;;;;;;-2.03;100.00;101317.38;5074145;28;20385;-76
2021/03/07 00:52:16;;;;;;;12.15;4.22;;;;;;;-2.02;100.00;101318.97;5062003;28;20044;-76
2021/03/07 00:55:19;;;;;;;20.15;7.05;;;;;;;-1.99;100.00;101312.78;5061524;28;20037;-76
2021/03/07 00:58:23;;;;;;;5.97;4.10;;;;;;;-1.97;100.00;101309.72;5061570;28;20477;-76
2021/03/07 01:01:26;;;;;;;10.68;6.10;;;;;;;-1.97;100.00;101310.50;5061500;28;20059;-76
2021/03/07 01:04:30;;;;;;;22.55;7.57;;;;;;;-1.96;100.00;101301.16;5074029;28;20044;-76
2021/03/07 01:07:34;;;;;;;20.90;6.28;;;;;;;-1.96;100.00;101303.09;5060583;28;20041;-75
2021/03/07 01:10:41;;;;;;;11.13;6.88;;;;;;;-1.98;100.00;101298.00;5060869;28;20396;-75
2021/03/07 01:13:45;;;;;;;13.07;6.20;;;;;;;-2.03;100.00;101290.09;5053612;28;20045;-75
2021/03/07 01:16:48;;;;;;;10.27;5.47;;;;;;;-2.04;100.00;101282.25;5053399;28;20044;-76
2021/03/07 01:19:52;;;;;;;7.57;4.65;;;;;;;-2.08;100.00;101287.63;5041247;28;20045;-76
2021/03/07 01:22:56;;;;;;;11.25;5.90;;;;;;;-2.12;100.00;101284.03;5041209;28;20048;-76
2021/03/07 01:26:01;;;;;;;12.38;5.60;;;;;;;-2.18;100.00;101282.72;5053589;28;20040;-76
2021/03/07 01:29:04;;;;;;;15.75;6.05;;;;;;;-2.25;100.00;101271.63;5053505;28;20045;-76
2021/03/07 01:32:08;;;;;;;7.65;5.13;;;;;;;-2.26;100.00;101270.06;5040291;28;20040;-76
2021/03/07 01:35:12;;;;;;;17.70;4.85;;;;;;;-2.33;100.00;101269.91;5041330;28;20045;-76
2021/03/07 01:38:16;;;;;;;6.90;4.43;;;;;;;-2.38;100.00;101262.78;5053251;28;20041;-75
2021/03/07 01:41:19;;;;;;;12.10;5.18;;;;;;;-2.38;100.00;101262.78;5053194;28;20048;-75
2021/03/07 01:44:23;;;;;;;11.40;5.88;;;;;;;-2.41;100.00;101259.97;5064193;28;20029;-75
2021/03/07 01:47:32;;;;;;;6.10;4.65;;;;;;;-2.46;100.00;101261.03;5040992;28;20049;-76
2021/03/07 01:50:38;;;;;;;22.30;7.43;;;;;;;-2.48;100.00;101259.78;5053207;28;20052;-76
2021/03/07 01:53:42;;;;;;;9.85;5.80;;;;;;;-2.51;100.00;101249.59;5052652;28;20041;-75
2021/03/07 01:56:46;;;;;;;9.40;5.70;;;;;;;-2.53;100.00;101249.16;5063429;28;20044;-76
2021/03/07 01:59:53;;;;;;;8.55;5.30;;;;;;;-2.53;100.00;101243.69;5052906;28;20051;-75
2021/03/07 02:02:57;;;;;;;6.28;4.97;;;;;;;-2.54;100.00;101242.94;5052641;28;20056;-76
2021/03/07 02:06:01;;;;;;;8.10;4.40;;;;;;;-2.55;100.00;101232.34;5040369;28;20045;-76
2021/03/07 02:09:04;;;;;;;6.18;3.28;;;;;;;-2.59;100.00;101223.28;5040198;28;20045;-76
2021/03/07 02:12:09;;;;;;;5.13;4.65;;;;;;;-2.62;100.00;101213.88;5052652;28;20040;-76
2021/03/07 02:15:14;;;;;;;9.75;4.85;;;;;;;-2.61;100.00;101212.75;5060359;28;20047;-76
2021/03/07 02:18:19;;;;;;;10.77;6.72;;;;;;;-2.57;100.00;101215.56;5072361;28;20063;-76
2021/03/07 02:21:27;;;;;;;12.65;5.32;;;;;;;-2.53;100.00;101209.03;5060209;28;20481;-76
2021/03/07 02:24:32;;;;;;;11.10;5.53;;;;;;;-2.49;100.00;101209.13;5072442;28;20385;-76
2021/03/07 02:27:37;;;;;;;3.20;2.97;;;;;;;-2.45;100.00;101212.75;5072570;28;20040;-75
2021/03/07 02:30:41;;;;;;;5.93;5.43;;;;;;;-2.44;100.00;101212.38;5072660;28;20040;-76
2021/03/07 02:33:46;;;;;;;7.18;4.43;;;;;;;-2.40;100.00;101201.53;5072485;28;20052;-76
2021/03/07 02:36:53;;;;;;;5.63;4.43;;;;;;;-2.36;100.00;101202.44;5072483;28;20044;-76
2021/03/07 02:39:59;;;;;;;7.47;4.35;;;;;;;-2.32;100.00;101200.56;5060110;28;20047;-76
2021/03/07 02:43:08;;;;;;;10.05;6.55;;;;;;;-2.31;100.00;101194.75;5074164;28;20386;-75
2021/03/07 02:46:15;;;;;;;8.60;6.22;;;;;;;-2.26;100.00;101193.69;5063804;28;20044;-76
2021/03/07 02:49:19;;;;;;;9.27;4.03;;;;;;;-2.23;100.00;101192.19;5076386;28;20047;-75
2021/03/07 02:52:23;;;;;;;9.80;6.10;;;;;;;-2.20;100.00;101197.72;5076222;28;20492;-76
2021/03/07 02:55:29;;;;;;;17.05;6.13;;;;;;;-2.13;100.00;101180.69;5064083;28;20048;-76
2021/03/07 02:58:34;;;;;;;15.07;4.90;;;;;;;-2.06;100.00;101189.84;5063750;28;20032;-76
2021/03/07 03:01:39;;;;;;;9.15;4.07;;;;;;;-2.06;100.00;101187.13;5076306;28;20037;-76
2021/03/07 03:04:44;;;;;;;4.80;4.05;;;;;;;-2.02;100.00;101182.50;5063748;28;20051;-76
2021/03/07 03:07:48;;;;;;;5.55;5.00;;;;;;;-1.96;100.00;101186.53;5075926;28;20056;-76
2021/03/07 03:10:54;;;;;;;10.43;6.20;;;;;;;-1.93;100.00;101185.81;5075953;28;20048;-76
2021/03/07 03:13:58;;;;;;;7.60;4.90;;;;;;;-1.88;100.00;101182.00;5075983;28;20044;-76
2021/03/07 03:17:03;;;;;;;7.13;3.80;;;;;;;-1.88;100.00;101182.78;5063295;28;20056;-75
2021/03/07 03:20:16;;;;;;;13.82;5.95;;;;;;;-1.83;100.00;101179.78;5063603;28;20485;-76
2021/03/07 03:23:19;;;;;;;5.97;3.83;;;;;;;-1.80;100.00;101167.34;5075780;28;20033;-76
2021/03/07 03:26:24;;;;;;;8.80;4.85;;;;;;;-1.80;100.00;101173.59;5074709;28;20041;-76
2021/03/07 03:29:31;;;;;;;6.07;4.03;;;;;;;-1.78;100.00;101171.31;5062975;28;20044;-76
2021/03/07 03:32:35;;;;;;;7.03;4.85;;;;;;;-1.74;100.00;101172.16;5075403;28;20044;-76
2021/03/07 03:35:39;;;;;;;8.27;4.18;;;;;;;-1.72;100.00;101164.41;5075640;28;20047;-75
2021/03/07 03:38:52;;;;;;;7.43;5.55;;;;;;;-1.70;100.00;101164.84;5063188;28;20037;-76
2021/03/07 03:42:00;;;;;;;8.00;4.57;;;;;;;-1.66;100.00;101157.50;5075550;28;20052;-76
2021/03/07 03:45:05;;;;;;;15.50;4.60;;;;;;;-1.61;100.00;101154.47;5075440;28;20051;-75
2021/03/07 03:48:13;;;;;;;21.13;6.07;;;;;;;-1.62;100.00;101158.34;5075403;28;20465;-76
2021/03/07 03:51:19;;;;;;;6.53;4.47;;;;;;;-1.62;100.00;101149.34;5063286;28;20044;-76
2021/03/07 03:54:23;;;;;;;3.03;2.75;;;;;;;-1.60;100.00;101150.56;5061526;28;20370;-76
2021/03/07 03:57:32;;;;;;;11.38;6.20;;;;;;;-1.58;100.00;101142.81;5062655;28;20039;-76
2021/03/07 04:00:39;;;;;;;11.65;5.18;;;;;;;-1.56;100.00;101156.13;5075167;28;20044;-76
2021/03/07 04:03:48;;;;;;;3.90;3.35;;;;;;;-1.61;100.00;101142.75;5075048;28;20040;-75
2021/03/07 04:06:53;;;;;;;8.45;6.78;;;;;;;-1.61;100.00;101143.56;5074984;28;20044;-76
2021/03/07 04:09:57;;;;;;;3.67;3.15;;;;;;;-1.58;100.00;101137.34;5074793;28;20044;-76
2021/03/07 04:13:02;;;;;;;17.17;5.88;;;;;;;-1.55;100.00;101141.31;5074913;28;20055;-76
2021/03/07 04:16:06;;;;;;;16.73;5.15;;;;;;;-1.54;100.00;101137.44;5074985;28;20041;-75
2021/03/07 04:19:10;;;;;;;11.50;6.10;;;;;;;-1.55;100.00;101144.84;5062428;28;20493;-76
2021/03/07 04:22:15;;;;;;;9.00;4.28;;;;;;;-1.55;100.00;101142.09;5074646;28;20045;-76
2021/03/07 04:25:19;;;;;;;17.02;5.65;;;;;;;-1.55;100.00;101136.63;5074762;28;20037;-76
2021/03/07 04:28:24;;;;;;;18.02;4.85;;;;;;;-1.54;100.00;101138.19;5074633;28;20032;-75
2021/03/07 04:31:27;;;;;;;6.15;3.75;;;;;;;-1.56;100.00;101140.50;5074940;28;20048;-75
2021/03/07 04:34:33;;;;;;;5.57;4.22;;;;;;;-1.56;100.00;101134.28;5074175;28;20403;-76
2021/03/07 04:37:36;;;;;;;8.05;4.50;;;;;;;-1.55;100.00;101131.19;5074198;28;20040;-75
2021/03/07 04:40:41;;;;;;;8.48;5.15;;;;;;;-1.52;100.00;101130.44;5074175;28;20044;-76
2021/03/07 04:43:48;;;;;;;13.20;4.00;;;;;;;-1.54;100.00;101135.47;5062113;28;20373;-75
2021/03/07 04:46:52;;;;;;;9.55;5.85;;;;;;;-1.52;100.00;101133.16;5074025;28;20072;-76
2021/03/07 04:49:55;;;;;;;8.43;4.70;;;;;;;-1.48;100.00;101127.00;5074302;28;20482;-75
2021/03/07 04:52:59;;;;;;;14.90;5.78;;;;;;;-1.45;100.00;101129.00;5074143;28;20048;-76
2021/03/07 04:56:03;;;;;;;7.18;6.13;;;;;;;-1.45;100.00;101126.28;5074274;28;20052;-76
2021/03/07 04:59:07;;;;;;;5.05;4.60;;;;;;;-1.45;100.00;101123.53;5074033;28;20496;-76
2021/03/07 05:02:11;;;;;;;10.82;5.28;;;;;;;-1.42;100.00;101114.59;5061592;28;20401;-76
2021/03/07 05:05:14;;;;;;;15.02;8.25;;;;;;;-1.42;100.00;101114.59;5073827;28;20044;-76
2021/03/07 05:08:19;;;;;;;18.45;5.35;;;;;;;-1.42;100.00;101122.78;5073910;28;20041;-76
2021/03/07 05:11:22;;;;;;;7.38;4.70;;;;;;;-1.42;100.00;101122.78;5061225;28;20401;-75
2021/03/07 05:14:26;;;;;;;5.95;4.90;;;;;;;-1.40;100.00;101115.03;5073854;28;20041;-76
2021/03/07 05:17:29;;;;;;;5.47;4.03;;;;;;;-1.39;100.00;101116.63;5073572;28;20056;-76
2021/03/07 05:20:33;;;;;;;10.02;5.05;;;;;;;-1.38;100.00;101115.44;5073593;28;20043;-76
2021/03/07 05:23:37;;;;;;;8.73;5.25;;;;;;;-1.36;100.00;101121.34;5073626;28;20041;-76
2021/03/07 05:26:40;;;;;;;16.45;5.30;;;;;;;-1.33;100.00;101115.16;5061004;28;20492;-76
2021/03/07 05:29:44;;;;;;;15.27;4.93;;;;;;;-1.33;100.00;101115.16;5061004;28;20036;-76
2021/03/07 05:32:47;;;;;;;6.30;5.13;;;;;;;-1.32;100.00;101111.28;5073383;28;20044;-76
2021/03/07 05:35:51;;;;;;;6.03;4.30;;;;;;;-1.30;100.00;101103.50;5061117;28;20055;-76
2021/03/07 05:38:54;;;;;;;6.07;4.03;;;;;;;-1.32;100.00;101100.34;5060817;28;20397;-77
2021/03/07 05:41:57;;;;;;;7.72;5.45;;;;;;;-1.32;100.00;101100.34;5072564;28;20052;-76
2021/03/07 05:45:02;;;;;;;7.82;5.13;;;;;;;-1.29;100.00;101094.94;5061119;28;20385;-76
2021/03/07 05:48:06;;;;;;;6.72;4.32;;;;;;;-1.24;100.00;101085.66;5060331;28;20051;-76
2021/03/07 05:51:15;;;;;;;9.80;5.45;;;;;;;-1.19;100.00;101082.63;5060812;28;20535;-75
2021/03/07 05:54:20;;;;;;;10.93;6.78;;;;;;;-1.17;100.00;101088.50;5072959;28;20111;-76
2021/03/07 05:57:25;;;;;;;7.10;5.68;;;;;;;-1.16;100.00;101093.59;5072944;28;20036;-76
2021/03/07 06:00:29;;;;;;;15.32;6.28;;;;;;;-1.12;100.00;101091.69;5060843;28;20404;-75
2021/03/07 06:03:33;;;;;;;18.98;6.10;;;;;;;-1.12;100.00;101082.69;5060559;28;20040;-75
2021/03/07 06:06:37;;;;;;;25.05;4.45;;;;;;;-1.12;100.00;101083.50;5072673;28;20509;-75
2021/03/07 06:09:40;;;;;;;11.32;5.20;;;;;;;-1.11;100.00;101079.63;5072839;28;20385;-76
2021/03/07 06:13:05;;;;;;;10.70;5.57;;;;;;;-1.10;100.00;101083.13;5060717;28;20048;-76
2021/03/07 06:16:12;;;;;;;8.63;4.75;;;;;;;-1.09;100.00;101077.31;5060457;28;20048;-76
2021/03/07 06:19:16;;;;;;;9.50;4.88;;;;;;;-1.06;100.00;101075.78;5060218;28;20044;-76
2021/03/07 06:22:20;;;;;;;12.10;6.82;;;;;;;-1.06;100.00;101075.78;5072973;28;20048;-76
2021/03/07 06:25:24;;;;;;;5.30;4.80;;;;;;;-1.05;100.00;101082.81;5072548;28;20036;-76
2021/03/07 06:28:28;;;;;;;10.05;5.55;;;;;;;-1.05;100.00;101072.69;5072638;28;20059;-76
2021/03/07 06:31:32;;;;;;;10.15;5.60;;;;;;;-1.04;100.00;101068.00;5060204;28;20032;-76
2021/03/07 06:34:43;;;;;;;17.98;5.50;;;;;;;-1.02;100.00;101076.63;5072594;28;20485;-76
2021/03/07 06:37:59;;;;;;;10.27;4.32;;;;;;;-1.01;100.00;101064.53;5060324;28;20037;-76
2021/03/07 06:41:14;;;;;;;15.57;4.22;;;;;;;-0.99;100.00;101073.94;5072846;28;20040;-76
2021/03/07 06:44:18;;;;;;;25.20;5.03;;;;;;;-0.97;100.00;101071.63;5060089;28;20040;-76
2021/03/07 06:47:23;;;;;;;4.88;4.47;;;;;;;-0.97;100.00;101074.34;5072534;28;20048;-79
2021/03/07 06:50:27;;;;;;;12.20;5.32;;;;;;;-0.96;100.00;101066.94;5060043;28;20044;-78
2021/03/07 06:53:48;;;;;;;4.40;3.95;;;;;;;-0.92;100.00;101070.53;5060048;28;20044;-76
2021/03/07 06:56:51;;;;;;;14.18;5.57;;;;;;;-0.90;100.00;101066.28;5060075;28;20059;-76
2021/03/07 06:59:55;;;;;;;3.58;3.15;;;;;;;-0.88;100.00;101072.16;5072398;28;20036;-78
2021/03/07 07:03:10;;;;;;;16.27;5.45;;;;;;;-0.85;100.00;101076.09;5059956;28;20059;-78
2021/03/07 07:06:13;;;;;;;7.05;5.95;;;;;;;-0.80;100.00;101084.75;5072301;28;20033;-75
2021/03/07 07:09:24;;;;;;;6.20;4.88;;;;;;;-0.76;100.00;101080.13;5060213;28;20045;-76
2021/03/07 07:12:29;;;;;;;3.70;3.28;;;;;;;-0.72;100.00;101074.72;5059783;28;20041;-78
2021/03/07 07:15:32;;;;;;;9.00;4.47;;;;;;;-0.67;100.00;101068.91;5072221;28;20048;-77
2021/03/07 07:18:39;;;;;;;16.17;5.30;;;;;;;-0.62;100.00;101068.59;5051237;28;20060;-78
2021/03/07 07:21:42;;;;;;;4.45;3.78;;;;;;;-0.62;100.00;101068.59;5051569;28;20044;-77
2021/03/07 07:24:46;;;;;;;7.68;5.40;;;;;;;-0.62;100.00;101079.53;5051215;28;20048;-77
2021/03/07 07:27:49;;;;;;;12.65;5.22;;;;;;;-0.64;100.00;101076.41;5051338;28;20048;-77
2021/03/07 07:30:53;;;;;;;16.55;5.47;;;;;;;-0.65;100.00;101083.00;5054906;28;20044;-79
2021/03/07 07:34:19;;;;;;;5.07;3.88;;;;;;;-0.66;100.00;101070.50;5055630;28;20037;-78
2021/03/07 07:37:50;;;;;;;4.47;4.00;;;;;;;-0.57;100.00;101078.44;5054867;28;20045;-78
2021/03/07 07:40:53;;;;;;;6.50;3.67;;;;;;;-0.48;100.00;101084.44;5051170;28;20041;-76
2021/03/07 07:43:58;;;;;;;5.47;4.90;;;;;;;-0.40;100.00;101070.47;5063781;28;20039;-74
2021/03/07 07:47:05;;;;;;;10.80;6.22;;;;;;;-0.31;100.00;101075.66;5068147;28;20037;-76
2021/03/07 07:50:32;;;;;;;10.48;6.30;;;;;;;-0.21;100.00;101073.03;5054098;28;20045;-76
2021/03/07 07:53:35;;;;;;;17.30;8.05;;;;;;;-0.14;100.00;101078.63;5054216;28;20041;-76
2021/03/07 07:56:43;;;;;;;22.70;5.55;;;;;;;-0.06;100.00;101080.25;5054478;28;20045;-75
2021/03/07 07:59:51;;;;;;;10.95;5.43;;;;;;;0.00;100.00;101080.72;5054448;28;20394;-76
2021/03/07 08:02:56;;;;;;;9.75;5.90;;;;;;;0.11;100.00;101073.41;5055202;28;20041;-77
2021/03/07 08:06:04;;;;;;;11.32;6.28;;;;;;;0.26;100.00;101074.34;5054125;28;20048;-77
2021/03/07 08:09:34;;;;;;;25.35;6.30;;;;;;;0.39;100.00;101075.66;5054904;28;20060;-77
2021/03/07 08:12:44;;;;;;;6.20;5.00;;;;;;;0.52;100.00;101077.72;5054186;28;20045;-76
2021/03/07 08:15:49;;;;;;;15.90;5.00;;;;;;;0.60;100.00;101078.59;5055004;28;20398;-79
2021/03/07 08:18:57;;;;;;;15.43;6.25;;;;;;;0.66;100.00;101068.84;5034690;28;20045;-78
2021/03/07 08:22:05;;;;;;;14.75;4.65;;;;;;;0.75;100.00;101074.81;5034024;28;20049;-77
2021/03/07 08:25:09;;;;;;;7.22;5.30;;;;;;;0.83;100.00;101065.47;5034436;28;20391;-77
2021/03/07 08:31:33;;;;;;;22.17;4.93;;;;;;;1.03;100.00;101066.78;5034745;28;20072;-77
2021/03/07 08:34:44;;;;;;;13.93;5.82;;;;;;;1.15;100.00;101071.19;5033743;28;20513;-78
2021/03/07 08:38:11;;;;;;;20.20;7.93;;;;;;;1.23;100.00;101057.13;5014742;28;20053;-77
2021/03/07 08:41:18;;;;;;;18.85;6.75;;;;;;;1.28;100.00;101051.25;5013815;28;20041;-81
2021/03/07 08:44:22;;;;;;;19.55;8.45;;;;;;;1.34;100.00;101051.69;5024406;28;20045;-82
2021/03/07 08:47:52;;;;;;;14.27;5.32;;;;;;;1.38;100.00;101063.47;5034925;28;20045;-81
2021/03/07 08:50:56;;;;;;;13.05;6.00;;;;;;;1.48;100.00;101063.53;5034103;28;20042;-84
2021/03/07 08:54:08;;;;;;;12.07;5.53;;;;;;;1.58;100.00;101055.75;5033752;28;20057;-83
2021/03/07 08:57:11;;;;;;;6.75;4.00;;;;;;;1.71;100.00;101056.97;5034284;28;20185;-80
2021/03/07 09:00:17;;;;;;;17.88;4.90;;;;;;;1.83;100.00;101051.91;5033528;28;20064;-84
2021/03/07 09:03:28;;;;;;;9.73;4.10;;;;;;;1.96;100.00;101063.31;5033750;28;20059;-83
2021/03/07 09:06:44;;;;;;;3.72;2.65;;;;;;;2.03;100.00;101055.13;5034621;28;20060;-82
2021/03/07 09:09:47;;;;;;;12.18;4.43;;;;;;;2.12;100.00;101045.31;5033646;28;20049;-86
2021/03/07 09:12:51;;;;;;;9.75;4.47;;;;;;;2.16;100.00;101053.59;5034040;28;20037;-84
2021/03/07 09:15:58;;;;;;;15.65;4.93;;;;;;;2.25;100.00;101051.25;5034067;28;20395;-78
2021/03/07 09:19:16;;;;;;;5.50;3.00;;;;;;;2.33;100.00;101047.31;5074157;28;20033;-81
2021/03/07 09:22:25;;;;;;;6.88;3.10;;;;;;;2.46;100.00;101040.28;5061633;28;20393;-82
2021/03/07 09:25:28;;;;;;;5.80;4.40;;;;;;;2.49;100.00;101042.22;5073709;28;20047;-82
2021/03/07 09:28:36;;;;;;;24.13;3.88;;;;;;;2.53;100.00;101045.78;5061395;28;20039;-82
2021/03/07 09:31:40;;;;;;;5.68;2.50;;;;;;;2.59;100.00;101037.91;5061392;28;20055;-80
2021/03/07 09:34:44;;;;;;;4.28;2.33;;;;;;;2.67;100.00;101034.78;5073677;28;20052;-80
2021/03/07 09:37:54;;;;;;;5.85;2.13;;;;;;;2.74;100.00;101036.75;5052732;28;20048;-83
2021/03/07 09:40:57;;;;;;;7.22;4.28;;;;;;;2.88;100.00;101029.25;5057519;28;20044;-80
2021/03/07 09:44:06;;;;;;;3.88;3.22;;;;;;;2.98;100.00;101030.44;5053203;28;20044;-80
2021/03/07 09:47:11;;;;;;;7.13;3.72;;;;;;;3.07;100.00;101036.31;5040936;28;20924;-80
2021/03/07 09:50:15;;;;;;;4.75;2.00;;;;;;;3.10;100.00;101029.25;5060802;28;20060;-79
2021/03/07 09:53:19;;;;;;;6.72;2.88;;;;;;;3.21;100.00;101036.28;5072447;28;20043;-82
2021/03/07 09:56:29;;;;;;;5.68;2.65;;;;;;;3.28;100.00;101030.75;5071151;28;20048;-82
2021/03/07 09:59:34;;;;;;;6.45;2.85;;;;;;;3.39;100.00;101036.25;5073093;28;20039;-82
2021/03/07 10:02:38;;;;;;;3.63;1.70;;;;;;;3.45;100.00;101034.63;5060992;28;20058;-83
2021/03/07 10:05:42;;;;;;;10.20;3.08;;;;;;;3.51;100.00;101038.56;5061088;28;20043;-83
2021/03/07 10:09:02;;;;;;;7.82;4.30;;;;;;;3.68;100.00;101032.22;5072964;28;20043;-83
2021/03/07 10:12:05;;;;;;;11.00;3.83;;;;;;;3.72;100.00;101032.97;5072946;28;20036;-81
2021/03/07 10:15:13;;;;;;;8.82;2.95;;;;;;;3.68;100.00;101026.69;5060783;28;20043;-82
2021/03/07 10:18:17;;;;;;;8.70;3.40;;;;;;;3.70;100.00;101024.34;5052627;28;20043;-81
2021/03/07 10:21:29;;;;;;;6.90;3.25;;;;;;;3.62;100.00;101011.75;5060636;28;20043;-82
2021/03/07 10:24:36;;;;;;;;;;;;;;;3.47;100.00;101010.25;5072314;28;20050;-82
2021/03/07 10:27:39;;;;;;;12.48;3.00;;;;;;;3.41;100.00;101006.34;5059789;28;20308;-76
2021/03/07 10:30:45;;;;;;;7.50;3.38;;;;;;;3.29;100.00;101004.03;5059792;28;20043;-80
2021/03/07 10:33:53;;;;;;;13.48;3.92;;;;;;;3.22;100.00;100998.53;5059718;28;20048;-75
2021/03/07 10:36:56;;;;;;;8.32;4.05;;;;;;;3.16;100.00;101000.94;5058314;28;20048;-75
2021/03/07 10:40:00;;;;;;;11.30;3.60;;;;;;;3.16;100.00;101002.88;5072626;28;20056;-76
2021/03/07 10:43:04;;;;;;;12.30;3.13;;;;;;;3.16;100.00;100994.63;5059694;28;20044;-76
2021/03/07 10:46:09;;;;;;;7.22;2.72;;;;;;;3.25;100.00;100989.50;5060282;28;20040;-77
2021/03/07 10:49:12;;;;;;;7.28;3.47;;;;;;;3.29;100.00;100990.25;5059937;28;20107;-77
2021/03/07 10:52:17;;;;;;;6.97;3.67;;;;;;;3.43;100.00;100984.69;5060180;28;20044;-77
2021/03/07 10:55:20;;;;;;;7.80;3.92;;;;;;;3.63;100.00;100977.53;5060283;28;20039;-76
2021/03/07 10:58:24;;;;;;;6.97;3.88;;;;;;;3.99;100.00;100975.34;5083390;28;20043;-77
2021/03/07 11:01:27;;;;;;;8.43;2.95;;;;;;;4.50;100.00;100970.63;5083311;28;20055;-77
2021/03/07 11:04:31;;;;;;;7.57;3.53;;;;;;;4.94;100.00;100969.03;5085757;28;20052;-76
2021/03/07 11:07:35;;;;;;;6.05;3.65;;;;;;;5.29;100.00;100979.69;5064696;28;20052;-76
2021/03/07 11:10:38;;;;;;;25.88;5.20;;;;;;;5.45;100.00;100976.34;5064075;28;20048;-77
2021/03/07 11:13:42;;;;;;;9.93;4.13;;;;;;;5.47;100.00;100972.00;5063721;28;20047;-77
2021/03/07 11:16:45;;;;;;;16.33;5.00;;;;;;;5.50;100.00;100973.91;5075752;28;20051;-77
2021/03/07 11:19:49;;;;;;;8.52;3.45;;;;;;;5.52;100.00;100971.53;5086742;28;20043;-78
2021/03/07 11:22:52;;;;;;;11.35;3.58;;;;;;;5.67;100.00;100977.66;5064015;28;20492;-77
2021/03/07 11:25:56;;;;;;;12.25;3.55;;;;;;;5.60;100.00;100973.00;5075820;28;20039;-77
2021/03/07 11:28:59;;;;;;;10.57;2.88;;;;;;;5.63;100.00;100961.09;5063376;28;20040;-77
2021/03/07 11:32:03;;;;;;;10.48;2.90;;;;;;;5.57;100.00;100964.75;5064364;28;20037;-77
2021/03/07 11:35:08;;;;;;;10.98;4.05;;;;;;;5.42;100.00;100966.91;5075744;28;20036;-77
2021/03/07 11:38:11;;;;;;;5.72;2.00;;;;;;;5.14;100.00;100975.53;5063350;28;20051;-76
2021/03/07 11:41:15;;;;;;;10.35;3.75;;;;;;;5.00;100.00;100970.94;5063910;28;20056;-81
2021/03/07 11:44:18;;;;;;;13.05;4.20;;;;;;;4.93;100.00;100967.47;5063951;28;20044;-81
2021/03/07 11:47:21;;;;;;;10.93;3.15;;;;;;;4.94;100.00;100974.56;5063504;28;20040;-79
2021/03/07 11:50:25;;;;;;;6.07;2.67;;;;;;;5.02;100.00;100960.28;5063203;28;20059;-79
2021/03/07 11:53:29;;;;;;;7.68;2.95;;;;;;;5.23;100.00;100964.78;5063574;28;20492;-84
2021/03/07 11:56:32;;;;;;;7.45;2.95;;;;;;;5.34;100.00;100960.72;5063219;28;20047;-84
2021/03/07 11:59:35;;;;;;;18.75;3.15;;;;;;;5.48;100.00;100964.50;5075657;28;20512;-81
2021/03/07 12:02:39;;;;;;;10.10;3.70;;;;;;;5.54;100.00;100952.56;5075704;28;20063;-86
2021/03/07 12:05:42;;;;;;;5.90;2.97;;;;;;;5.68;100.00;100957.09;5063737;28;20040;-85
2021/03/07 12:08:46;;;;;;;5.13;2.78;;;;;;;5.73;100.00;100946.38;5075198;28;20047;-83
2021/03/07 12:11:50;;;;;;;4.07;2.00;;;;;;;5.70;100.00;100943.66;5062874;28;20043;-82
2021/03/07 12:14:53;;;;;;;13.05;2.83;;;;;;;5.68;100.00;100946.84;5062334;28;20048;-83
2021/03/07 12:17:57;;;;;;;4.13;2.78;;;;;;;5.50;100.00;100940.00;5052200;28;20056;-82
2021/03/07 12:21:01;;;;;;;7.03;3.10;;;;;;;5.42;100.00;100938.50;5060604;28;20040;-82
2021/03/07 12:24:05;;;;;;;6.93;3.22;;;;;;;5.40;100.00;100933.41;5037639;28;20040;-82
2021/03/07 12:27:10;;;;;;;3.78;1.75;;;;;;;5.55;100.00;100937.53;5059754;28;20039;-82
2021/03/07 12:30:14;;;;;;;6.55;2.40;;;;;;;5.86;100.00;100936.34;5035704;28;20048;-82
2021/03/07 12:33:18;;;;;;;9.20;2.97;;;;;;;5.73;100.00;100935.34;5049829;28;20055;-80
2021/03/07 12:36:22;;;;;;;13.60;3.95;;;;;;;5.58;100.00;100936.72;5039428;28;21045;-81
2021/03/07 12:39:26;;;;;;;7.70;2.58;;;;;;;5.57;100.00;100926.06;5062142;28;20025;-81
2021/03/07 12:42:29;;;;;;;6.20;2.63;;;;;;;5.74;100.00;100920.28;5038378;28;20032;-80
2021/03/07 12:45:33;;;;;;;8.75;2.33;;;;;;;5.78;100.00;100909.97;5047328;28;20047;-82
2021/03/07 12:48:36;;;;;;;7.20;3.22;;;;;;;5.76;100.00;100912.38;5045401;28;20567;-80
2021/03/07 12:51:40;;;;;;;5.47;3.13;;;;;;;5.83;100.00;100901.22;5036042;28;20044;-80
2021/03/07 12:54:44;;;;;;;9.88;3.35;;;;;;;5.95;100.00;100900.69;5056984;28;20064;-80
2021/03/07 12:57:47;;;;;;;10.77;3.17;;;;;;;6.04;100.00;100894.63;5058195;28;20039;-80
2021/03/07 13:00:51;;;;;;;9.98;3.53;;;;;;;6.20;100.00;100891.97;5036215;28;20480;-80
2021/03/07 13:03:55;;;;;;;6.57;2.65;;;;;;;6.46;100.00;100891.13;5058650;28;20036;-88
2021/03/07 13:07:01;;;;;;;9.20;3.05;;;;;;;6.65;100.00;100882.06;5037237;28;20040;-82
2021/03/07 13:10:06;;;;;;;6.32;2.42;;;;;;;6.95;100.00;100872.81;5060488;28;20039;-80
2021/03/07 13:13:09;;;;;;;7.82;2.63;;;;;;;6.98;100.00;100877.50;5035407;28;20040;-76
2021/03/07 13:16:14;;;;;;;7.03;3.40;;;;;;;6.88;100.00;100878.50;5047737;28;20036;-82
2021/03/07 13:19:17;;;;;;;4.55;2.85;;;;;;;6.77;100.00;100872.38;5047923;28;20126;-81
2021/03/07 13:22:21;;;;;;;11.10;3.47;;;;;;;6.67;100.00;100865.06;5059445;28;20032;-81
2021/03/07 13:25:25;;;;;;;8.48;3.67;;;;;;;6.57;100.00;100871.56;5050766;28;20028;-82
2021/03/07 13:28:28;;;;;;;9.32;2.95;;;;;;;6.41;100.00;100857.66;5048095;28;20039;-82
2021/03/07 13:31:33;;;;;;;7.57;3.22;;;;;;;6.31;100.00;100866.91;5053501;28;20059;-83
2021/03/07 13:34:37;;;;;;;4.43;2.25;;;;;;;6.25;100.00;100847.25;5014701;28;20704;-81
2021/03/07 13:37:40;;;;;;;11.63;2.95;;;;;;;6.36;100.00;100855.34;5019293;28;20033;-81
2021/03/07 13:40:44;;;;;;;5.65;3.42;;;;;;;6.58;100.00;100848.22;5038858;28;20702;-82
2021/03/07 13:43:48;;;;;;;6.32;2.97;;;;;;;6.76;100.00;100840.34;5033316;28;20035;-82
2021/03/07 13:46:51;;;;;;;4.25;2.38;;;;;;;6.84;100.00;100842.53;5034295;28;20179;-79
2021/03/07 13:49:55;;;;;;;15.07;3.75;;;;;;;6.77;100.00;100836.38;5050047;28;20070;-84
2021/03/07 13:52:59;;;;;;;7.15;2.35;;;;;;;6.69;100.00;100829.44;5041730;28;20041;-82
2021/03/07 13:56:04;;;;;;;11.77;4.53;;;;;;;6.59;100.00;100820.13;5041717;28;20056;-82
2021/03/07 13:59:08;;;;;;;9.18;3.38;;;;;;;6.51;100.00;100815.16;5054091;28;20381;-81
2021/03/07 14:02:12;;;;;;;9.23;2.92;;;;;;;6.57;100.00;100814.22;5042129;28;20068;-86
2021/03/07 14:05:20;;;;;;;7.28;3.25;;;;;;;6.68;100.00;100814.03;5065009;28;20401;-84
2021/03/07 14:08:24;;;;;;;7.60;4.05;;;;;;;6.74;100.00;100813.09;5043507;28;20123;-88
2021/03/07 14:11:27;;;;;;;11.85;4.15;;;;;;;6.74;100.00;100807.56;5055015;28;20044;-88
2021/03/07 14:14:32;;;;;;;12.15;4.20;;;;;;;6.73;100.00;100802.47;5042228;28;20490;-83